sensor_id;sensor_type;location;lat;lon;timestamp;pressure;altitude;pressure_sealevel;temperature;humidity
5883;BME280;2967;51.488;6.618;2023-03-11T00:04:20;100336.09;;;3.97;100.00
5883;BME280;2967;51.488;6.618;2023-03-11T00:09:23;100227.44;;;3.33;100.00
5883;BME280;2967;51.488;6.618;2023-03-11T00:14:26;100366.66;;;4.15;100.00
5883;BME280;2967;51.488;6.618;2023-03-11T00:19:31;100354.47;;;4.14;100.00
5883;BME280;2967;51.488;6.618;2023-03-11T00:24:34;100370.19;;;4.14;100.00
5883;BME280;2967;51.488;6.618;2023-03-11T00:29:43;100381.56;;;4.13;100.00
5883;BME280;2967;51.488;6.618;2023-03-11T00:34:48;100306.84;;;3.69;100.00
5883;BME280;2967;51.488;6.618;2023-03-11T00:40:00;100381.50;;;4.14;100.00
5883;BME280;2967;51.488;6.618;2023-03-11T00:45:05;100402.44;;;4.14;100.00
5883;BME280;2967;51.488;6.618;2023-03-11T00:50:14;100348.59;;;3.90;100.00
5883;BME280;2967;51.488;6.618;2023-03-11T00:55:20;100363.41;;;4.10;100.00
5883;BME280;2967;51.488;6.618;2023-03-11T01:00:31;100386.41;;;4.22;100.00
5883;BME280;2967;51.488;6.618;2023-03-11T01:05:37;100402.16;;;4.20;100.00
5883;BME280;2967;51.488;6.618;2023-03-11T01:10:42;100394.09;;;4.25;100.00
5883;BME280;2967;51.488;6.618;2023-03-11T01:15:46;100412.31;;;4.28;100.00
5883;BME280;2967;51.488;6.618;2023-03-11T01:20:51;100387.09;;;4.07;100.00
5883;BME280;2967;51.488;6.618;2023-03-11T01:25:54;100307.63;;;3.71;100.00
5883;BME280;2967;51.488;6.618;2023-03-11T01:30:59;100413.50;;;4.21;100.00
5883;BME280;2967;51.488;6.618;2023-03-11T01:36:05;100386.66;;;3.97;100.00
5883;BME280;2967;51.488;6.618;2023-03-11T01:41:11;100426.22;;;4.10;100.00
5883;BME280;2967;51.488;6.618;2023-03-11T01:46:16;100440.22;;;4.09;100.00
5883;BME280;2967;51.488;6.618;2023-03-11T01:51:26;100419.69;;;4.00;100.00
5883;BME280;2967;51.488;6.618;2023-03-11T01:56:30;100437.03;;;4.02;100.00
5883;BME280;2967;51.488;6.618;2023-03-11T02:01:35;100442.94;;;4.06;100.00
5883;BME280;2967;51.488;6.618;2023-03-11T02:06:43;100441.97;;;4.08;100.00
5883;BME280;2967;51.488;6.618;2023-03-11T02:11:47;100314.34;;;3.18;100.00
5883;BME280;2967;51.488;6.618;2023-03-11T02:16:50;100456.25;;;4.01;100.00
5883;BME280;2967;51.488;6.618;2023-03-11T02:21:55;100425.19;;;3.74;100.00
5883;BME280;2967;51.488;6.618;2023-03-11T02:27:00;100429.38;;;3.78;100.00
5883;BME280;2967;51.488;6.618;2023-03-11T02:32:06;100359.56;;;3.40;100.00
5883;BME280;2967;51.488;6.618;2023-03-11T02:37:15;100450.31;;;3.78;100.00
5883;BME280;2967;51.488;6.618;2023-03-11T02:42:27;100380.91;;;3.29;100.00
5883;BME280;2967;51.488;6.618;2023-03-11T02:47:32;100316.41;;;2.90;100.00
5883;BME280;2967;51.488;6.618;2023-03-11T02:52:37;100465.41;;;3.71;100.00
5883;BME280;2967;51.488;6.618;2023-03-11T02:57:41;100465.22;;;3.76;100.00
5883;BME280;2967;51.488;6.618;2023-03-11T03:02:47;100416.00;;;3.44;100.00
5883;BME280;2967;51.488;6.618;2023-03-11T03:07:59;100436.28;;;3.39;100.00
5883;BME280;2967;51.488;6.618;2023-03-11T03:13:04;100478.53;;;3.70;100.00
5883;BME280;2967;51.488;6.618;2023-03-11T03:18:07;100480.41;;;3.46;100.00
5883;BME280;2967;51.488;6.618;2023-03-11T03:23:11;100378.59;;;3.02;100.00
5883;BME280;2967;51.488;6.618;2023-03-11T03:28:16;100482.00;;;3.70;100.00
5883;BME280;2967;51.488;6.618;2023-03-11T03:33:20;100471.91;;;3.41;100.00
5883;BME280;2967;51.488;6.618;2023-03-11T03:38:23;100500.59;;;3.43;100.00
5883;BME280;2967;51.488;6.618;2023-03-11T03:43:30;100506.06;;;3.37;100.00
5883;BME280;2967;51.488;6.618;2023-03-11T03:48:33;100507.69;;;3.39;100.00
5883;BME280;2967;51.488;6.618;2023-03-11T03:53:39;100532.91;;;3.40;100.00
5883;BME280;2967;51.488;6.618;2023-03-11T03:58:44;100447.72;;;2.93;100.00
5883;BME280;2967;51.488;6.618;2023-03-11T04:03:47;100501.13;;;3.29;100.00
5883;BME280;2967;51.488;6.618;2023-03-11T04:08:51;100547.09;;;3.56;100.00
5883;BME280;2967;51.488;6.618;2023-03-11T04:13:58;100498.19;;;3.17;100.00
5883;BME280;2967;51.488;6.618;2023-03-11T04:19:04;100414.41;;;2.55;100.00
5883;BME280;2967;51.488;6.618;2023-03-11T04:24:08;100522.34;;;3.22;100.00
5883;BME280;2967;51.488;6.618;2023-03-11T04:29:17;100559.81;;;3.22;100.00
5883;BME280;2967;51.488;6.618;2023-03-11T04:34:23;100458.34;;;2.45;100.00
5883;BME280;2967;51.488;6.618;2023-03-11T04:39:27;100567.59;;;3.01;100.00
5883;BME280;2967;51.488;6.618;2023-03-11T04:44:33;100520.81;;;2.72;100.00
5883;BME280;2967;51.488;6.618;2023-03-11T04:49:39;100100.19;;;0.16;100.00
5883;BME280;2967;51.488;6.618;2023-03-11T04:54:42;100537.72;;;2.85;100.00
5883;BME280;2967;51.488;6.618;2023-03-11T04:59:47;100537.69;;;2.86;100.00
5883;BME280;2967;51.488;6.618;2023-03-11T05:04:50;100579.84;;;3.22;100.00
5883;BME280;2967;51.488;6.618;2023-03-11T05:09:53;100550.03;;;3.04;100.00
5883;BME280;2967;51.488;6.618;2023-03-11T05:14:59;100498.69;;;2.59;100.00
5883;BME280;2967;51.488;6.618;2023-03-11T05:20:03;100554.53;;;3.01;100.00
5883;BME280;2967;51.488;6.618;2023-03-11T05:25:08;100594.03;;;3.15;100.00
5883;BME280;2967;51.488;6.618;2023-03-11T05:30:14;100575.13;;;3.08;100.00
5883;BME280;2967;51.488;6.618;2023-03-11T05:35:18;100595.25;;;3.06;100.00
5883;BME280;2967;51.488;6.618;2023-03-11T05:40:22;100602.25;;;3.06;100.00
5883;BME280;2967;51.488;6.618;2023-03-11T05:45:28;100593.06;;;2.96;100.00
5883;BME280;2967;51.488;6.618;2023-03-11T05:50:33;100615.41;;;3.03;100.00
5883;BME280;2967;51.488;6.618;2023-03-11T05:55:37;100616.44;;;2.99;100.00
5883;BME280;2967;51.488;6.618;2023-03-11T06:00:41;100586.34;;;2.89;100.00
5883;BME280;2967;51.488;6.618;2023-03-11T06:05:44;100579.75;;;2.79;100.00
5883;BME280;2967;51.488;6.618;2023-03-11T06:10:48;100622.75;;;2.93;100.00
5883;BME280;2967;51.488;6.618;2023-03-11T06:15:54;100574.00;;;2.45;100.00
5883;BME280;2967;51.488;6.618;2023-03-11T06:20:59;100551.56;;;2.17;100.00
5883;BME280;2967;51.488;6.618;2023-03-11T06:26:05;100588.88;;;2.43;100.00
5883;BME280;2967;51.488;6.618;2023-03-11T06:31:15;100575.63;;;2.25;100.00
5883;BME280;2967;51.488;6.618;2023-03-11T06:36:20;100576.69;;;2.19;100.00
5883;BME280;2967;51.488;6.618;2023-03-11T06:41:24;100679.16;;;2.74;100.00
5883;BME280;2967;51.488;6.618;2023-03-11T06:46:29;100675.44;;;2.81;100.00
5883;BME280;2967;51.488;6.618;2023-03-11T06:51:33;100682.59;;;2.75;100.00
5883;BME280;2967;51.488;6.618;2023-03-11T06:56:40;100656.91;;;2.63;100.00
5883;BME280;2967;51.488;6.618;2023-03-11T07:01:49;100685.88;;;2.81;100.00
5883;BME280;2967;51.488;6.618;2023-03-11T07:06:54;100703.13;;;2.85;100.00
5883;BME280;2967;51.488;6.618;2023-03-11T07:11:59;100686.19;;;2.97;100.00
5883;BME280;2967;51.488;6.618;2023-03-11T07:17:08;100734.06;;;3.20;100.00
5883;BME280;2967;51.488;6.618;2023-03-11T07:22:18;100696.69;;;3.18;100.00
5883;BME280;2967;51.488;6.618;2023-03-11T07:27:21;100748.78;;;3.47;100.00
5883;BME280;2967;51.488;6.618;2023-03-11T07:32:28;100701.66;;;3.26;100.00
5883;BME280;2967;51.488;6.618;2023-03-11T07:37:31;100752.47;;;3.65;100.00
5883;BME280;2967;51.488;6.618;2023-03-11T07:42:34;100700.97;;;3.44;100.00
5883;BME280;2967;51.488;6.618;2023-03-11T07:47:38;100743.19;;;3.79;100.00
5883;BME280;2967;51.488;6.618;2023-03-11T07:52:41;100744.88;;;3.80;100.00
5883;BME280;2967;51.488;6.618;2023-03-11T07:57:46;100795.03;;;4.14;100.00
5883;BME280;2967;51.488;6.618;2023-03-11T08:02:50;100778.56;;;4.12;100.00
5883;BME280;2967;51.488;6.618;2023-03-11T08:07:54;100692.09;;;3.71;100.00
5883;BME280;2967;51.488;6.618;2023-03-11T08:13:00;100791.13;;;4.46;100.00
5883;BME280;2967;51.488;6.618;2023-03-11T08:18:04;100801.63;;;4.46;100.00
5883;BME280;2967;51.488;6.618;2023-03-11T08:23:07;100726.19;;;3.91;100.00
5883;BME280;2967;51.488;6.618;2023-03-11T08:28:12;100805.56;;;4.56;100.00
5883;BME280;2967;51.488;6.618;2023-03-11T08:33:20;100812.66;;;4.54;100.00
5883;BME280;2967;51.488;6.618;2023-03-11T08:38:22;100794.25;;;4.34;100.00
5883;BME280;2967;51.488;6.618;2023-03-11T08:43:25;100748.59;;;4.19;99.43
5883;BME280;2967;51.488;6.618;2023-03-11T08:48:31;100810.63;;;4.60;100.00
5883;BME280;2967;51.488;6.618;2023-03-11T08:53:34;100813.06;;;4.65;100.00
5883;BME280;2967;51.488;6.618;2023-03-11T08:58:38;100825.06;;;4.92;99.07
5883;BME280;2967;51.488;6.618;2023-03-11T09:03:45;100826.91;;;4.90;98.32
5883;BME280;2967;51.488;6.618;2023-03-11T09:08:48;100821.47;;;4.94;94.20
5883;BME280;2967;51.488;6.618;2023-03-11T09:13:51;100800.28;;;4.79;90.25
5883;BME280;2967;51.488;6.618;2023-03-11T09:18:55;100827.53;;;4.95;90.30
5883;BME280;2967;51.488;6.618;2023-03-11T09:24:01;100751.81;;;4.47;90.28
5883;BME280;2967;51.488;6.618;2023-03-11T09:29:04;100758.06;;;4.65;94.48
5883;BME280;2967;51.488;6.618;2023-03-11T09:34:11;100813.88;;;5.08;91.71
5883;BME280;2967;51.488;6.618;2023-03-11T09:39:16;100839.97;;;5.11;89.58
5883;BME280;2967;51.488;6.618;2023-03-11T09:44:23;100851.06;;;5.37;91.58
5883;BME280;2967;51.488;6.618;2023-03-11T09:49:38;100842.00;;;5.44;86.96
5883;BME280;2967;51.488;6.618;2023-03-11T09:54:46;100828.09;;;5.42;84.38
5883;BME280;2967;51.488;6.618;2023-03-11T09:59:50;100848.69;;;5.71;81.52
5883;BME280;2967;51.488;6.618;2023-03-11T10:04:57;100864.97;;;5.79;83.95
5883;BME280;2967;51.488;6.618;2023-03-11T10:10:09;100780.09;;;5.40;84.52
5883;BME280;2967;51.488;6.618;2023-03-11T10:15:18;100862.25;;;5.81;86.53
5883;BME280;2967;51.488;6.618;2023-03-11T10:20:30;100873.75;;;5.98;76.49
5883;BME280;2967;51.488;6.618;2023-03-11T10:25:48;100875.59;;;5.96;74.94
5883;BME280;2967;51.488;6.618;2023-03-11T10:30:57;100881.84;;;6.12;80.25
5883;BME280;2967;51.488;6.618;2023-03-11T10:36:08;100530.84;;;4.11;74.56
5883;BME280;2967;51.488;6.618;2023-03-11T10:41:16;100806.09;;;5.07;74.67
5883;BME280;2967;51.488;6.618;2023-03-11T10:46:24;100878.88;;;5.81;85.84
5883;BME280;2967;51.488;6.618;2023-03-11T10:51:33;100882.66;;;5.74;78.05
5883;BME280;2967;51.488;6.618;2023-03-11T10:56:38;100794.66;;;5.47;83.60
5883;BME280;2967;51.488;6.618;2023-03-11T11:01:53;100825.97;;;5.70;82.10
5883;BME280;2967;51.488;6.618;2023-03-11T11:06:57;100812.34;;;5.82;74.84
5883;BME280;2967;51.488;6.618;2023-03-11T11:12:03;100883.38;;;6.36;79.18
5883;BME280;2967;51.488;6.618;2023-03-11T11:17:15;100814.41;;;5.94;78.09
5883;BME280;2967;51.488;6.618;2023-03-11T11:22:22;100892.09;;;6.37;77.17
5883;BME280;2967;51.488;6.618;2023-03-11T11:27:26;100784.13;;;6.06;81.88
5883;BME280;2967;51.488;6.618;2023-03-11T11:32:34;100810.34;;;6.61;77.94
5883;BME280;2967;51.488;6.618;2023-03-11T11:37:41;100877.09;;;7.11;75.35
5883;BME280;2967;51.488;6.618;2023-03-11T11:42:51;100865.00;;;7.24;74.41
5883;BME280;2967;51.488;6.618;2023-03-11T11:47:58;100883.69;;;7.37;77.61
5883;BME280;2967;51.488;6.618;2023-03-11T11:53:18;100886.00;;;7.60;74.67
5883;BME280;2967;51.488;6.618;2023-03-11T11:58:25;100880.97;;;7.38;72.85
5883;BME280;2967;51.488;6.618;2023-03-11T12:03:40;100742.03;;;6.78;71.80
5883;BME280;2967;51.488;6.618;2023-03-11T12:08:54;100737.47;;;6.65;73.42
5883;BME280;2967;51.488;6.618;2023-03-11T12:14:03;100880.03;;;7.22;79.83
5883;BME280;2967;51.488;6.618;2023-03-11T12:19:19;100833.22;;;6.59;71.46
5883;BME280;2967;51.488;6.618;2023-03-11T12:24:44;100881.53;;;6.92;75.50
5883;BME280;2967;51.488;6.618;2023-03-11T12:29:54;100843.50;;;7.16;74.43
5883;BME280;2967;51.488;6.618;2023-03-11T12:35:01;100814.56;;;7.33;73.84
5883;BME280;2967;51.488;6.618;2023-03-11T12:40:46;100449.13;;;5.68;72.76
5883;BME280;2967;51.488;6.618;2023-03-11T12:45:50;100638.25;;;7.18;75.18
5883;BME280;2967;51.488;6.618;2023-03-11T12:50:54;100880.91;;;8.54;70.86
5883;BME280;2967;51.488;6.618;2023-03-11T12:56:05;100861.13;;;8.14;67.92
5883;BME280;2967;51.488;6.618;2023-03-11T13:01:33;100847.41;;;8.71;66.45
5883;BME280;2967;51.488;6.618;2023-03-11T13:12:38;100867.28;;;8.46;71.84
5883;BME280;2967;51.488;6.618;2023-03-11T13:17:54;100881.69;;;8.87;73.77
5883;BME280;2967;51.488;6.618;2023-03-11T13:23:08;100845.91;;;8.97;68.63
5883;BME280;2967;51.488;6.618;2023-03-11T13:28:47;100780.84;;;9.11;76.27
5883;BME280;2967;51.488;6.618;2023-03-11T13:33:54;100579.03;;;8.17;70.80
5883;BME280;2967;51.488;6.618;2023-03-11T13:44:32;100858.75;;;10.19;66.33
5883;BME280;2967;51.488;6.618;2023-03-11T13:49:42;100752.84;;;9.66;70.27
5883;BME280;2967;51.488;6.618;2023-03-11T13:54:58;100848.84;;;10.09;68.08
5883;BME280;2967;51.488;6.618;2023-03-11T14:00:14;100880.16;;;10.43;66.70
5883;BME280;2967;51.488;6.618;2023-03-11T14:05:28;100641.94;;;8.82;68.18
5883;BME280;2967;51.488;6.618;2023-03-11T14:10:52;100412.59;;;6.78;58.64
5883;BME280;2967;51.488;6.618;2023-03-11T14:16:07;100766.28;;;8.90;72.46
5883;BME280;2967;51.488;6.618;2023-03-11T14:21:24;100704.69;;;8.32;62.82
5883;BME280;2967;51.488;6.618;2023-03-11T14:26:33;100878.75;;;9.66;67.55
5883;BME280;2967;51.488;6.618;2023-03-11T14:31:49;100410.13;;;7.06;70.79
5883;BME280;2967;51.488;6.618;2023-03-11T14:36:58;100903.13;;;10.14;72.88
5883;BME280;2967;51.488;6.618;2023-03-11T14:42:07;100898.69;;;10.29;73.17
5883;BME280;2967;51.488;6.618;2023-03-11T14:47:42;100693.91;;;8.80;68.85
5883;BME280;2967;51.488;6.618;2023-03-11T14:53:07;100815.16;;;9.41;72.92
5883;BME280;2967;51.488;6.618;2023-03-11T14:58:57;100895.88;;;9.88;77.01
5883;BME280;2967;51.488;6.618;2023-03-11T15:04:29;100741.50;;;8.79;66.51
5883;BME280;2967;51.488;6.618;2023-03-11T15:09:45;100659.34;;;8.41;70.25
5883;BME280;2967;51.488;6.618;2023-03-11T15:14:56;100451.47;;;6.88;71.98
5883;BME280;2967;51.488;6.618;2023-03-11T15:26:17;100302.63;;;5.60;69.99
5883;BME280;2967;51.488;6.618;2023-03-11T15:31:36;100378.44;;;5.99;69.22
5883;BME280;2967;51.488;6.618;2023-03-11T15:42:23;100908.97;;;8.55;78.71
5883;BME280;2967;51.488;6.618;2023-03-11T15:47:29;100708.16;;;7.39;72.72
5883;BME280;2967;51.488;6.618;2023-03-11T15:52:32;100900.06;;;7.92;79.10
5883;BME280;2967;51.488;6.618;2023-03-11T15:57:39;100840.56;;;7.39;76.80
5883;BME280;2967;51.488;6.618;2023-03-11T16:02:43;100758.09;;;7.06;73.16
5883;BME280;2967;51.488;6.618;2023-03-11T16:07:47;100902.88;;;8.05;78.39
5883;BME280;2967;51.488;6.618;2023-03-11T16:13:02;100897.84;;;8.17;74.05
5883;BME280;2967;51.488;6.618;2023-03-11T16:18:06;100908.34;;;7.85;84.00
5883;BME280;2967;51.488;6.618;2023-03-11T16:23:16;100649.78;;;6.49;80.87
5883;BME280;2967;51.488;6.618;2023-03-11T16:28:24;100911.13;;;7.99;84.61
5883;BME280;2967;51.488;6.618;2023-03-11T16:33:27;100906.34;;;7.90;82.75
5883;BME280;2967;51.488;6.618;2023-03-11T16:38:30;100647.19;;;6.32;87.28
5883;BME280;2967;51.488;6.618;2023-03-11T16:43:39;100732.22;;;6.46;83.71
5883;BME280;2967;51.488;6.618;2023-03-11T16:48:42;100698.91;;;6.13;77.56
5883;BME280;2967;51.488;6.618;2023-03-11T16:53:45;100719.41;;;6.40;89.03
5883;BME280;2967;51.488;6.618;2023-03-11T16:58:49;100895.50;;;7.45;84.02
5883;BME280;2967;51.488;6.618;2023-03-11T17:03:52;100924.00;;;7.54;82.83
5883;BME280;2967;51.488;6.618;2023-03-11T17:08:55;100898.16;;;7.28;80.97
5883;BME280;2967;51.488;6.618;2023-03-11T17:14:02;100885.63;;;6.98;89.61
5883;BME280;2967;51.488;6.618;2023-03-11T17:19:17;100827.97;;;6.59;96.89
5883;BME280;2967;51.488;6.618;2023-03-11T17:24:20;100934.44;;;7.03;97.20
5883;BME280;2967;51.488;6.618;2023-03-11T17:29:25;100664.00;;;5.37;88.91
5883;BME280;2967;51.488;6.618;2023-03-11T17:34:27;100723.28;;;5.59;92.26
5883;BME280;2967;51.488;6.618;2023-03-11T17:39:30;100898.34;;;6.53;92.64
5883;BME280;2967;51.488;6.618;2023-03-11T17:44:35;100444.88;;;3.62;95.25
5883;BME280;2967;51.488;6.618;2023-03-11T17:49:52;100939.38;;;6.55;93.88
5883;BME280;2967;51.488;6.618;2023-03-11T17:54:56;100944.00;;;6.50;95.93
5883;BME280;2967;51.488;6.618;2023-03-11T18:00:08;100851.72;;;5.82;89.08
5883;BME280;2967;51.488;6.618;2023-03-11T18:05:14;100644.72;;;4.61;93.17
5883;BME280;2967;51.488;6.618;2023-03-11T18:10:23;100409.16;;;3.00;88.15
5883;BME280;2967;51.488;6.618;2023-03-11T18:15:33;100811.06;;;5.32;91.63
5883;BME280;2967;51.488;6.618;2023-03-11T18:20:36;100894.34;;;5.67;91.76
5883;BME280;2967;51.488;6.618;2023-03-11T18:25:42;100934.00;;;5.81;93.55
5883;BME280;2967;51.488;6.618;2023-03-11T18:31:06;100681.38;;;4.20;95.40
5883;BME280;2967;51.488;6.618;2023-03-11T18:36:11;100616.66;;;3.82;95.94
5883;BME280;2967;51.488;6.618;2023-03-11T18:41:14;100912.81;;;5.44;93.92
5883;BME280;2967;51.488;6.618;2023-03-11T18:46:23;100663.69;;;3.83;87.71
5883;BME280;2967;51.488;6.618;2023-03-11T18:51:31;100936.94;;;5.32;91.79
5883;BME280;2967;51.488;6.618;2023-03-11T18:56:39;100342.50;;;1.80;93.12
5883;BME280;2967;51.488;6.618;2023-03-11T19:01:48;100767.25;;;4.10;93.84
5883;BME280;2967;51.488;6.618;2023-03-11T19:06:52;100911.41;;;4.95;97.88
5883;BME280;2967;51.488;6.618;2023-03-11T19:11:56;100591.91;;;3.03;94.62
5883;BME280;2967;51.488;6.618;2023-03-11T19:17:02;100502.88;;;2.40;97.20
5883;BME280;2967;51.488;6.618;2023-03-11T19:22:08;100772.66;;;4.06;95.10
5883;BME280;2967;51.488;6.618;2023-03-11T19:27:11;100390.00;;;1.65;97.22
5883;BME280;2967;51.488;6.618;2023-03-11T19:32:17;100740.66;;;3.30;96.14
5883;BME280;2967;51.488;6.618;2023-03-11T19:37:22;100851.19;;;4.06;96.23
5883;BME280;2967;51.488;6.618;2023-03-11T19:42:25;100906.50;;;4.43;98.66
5883;BME280;2967;51.488;6.618;2023-03-11T19:47:31;100441.31;;;1.38;95.93
5883;BME280;2967;51.488;6.618;2023-03-11T19:52:36;100981.88;;;4.81;98.66
5883;BME280;2967;51.488;6.618;2023-03-11T19:57:48;100818.28;;;3.53;98.44
5883;BME280;2967;51.488;6.618;2023-03-11T20:03:04;100513.19;;;1.96;100.00
5883;BME280;2967;51.488;6.618;2023-03-11T20:08:10;100885.53;;;4.43;100.00
5883;BME280;2967;51.488;6.618;2023-03-11T20:13:16;100919.75;;;4.61;100.00
5883;BME280;2967;51.488;6.618;2023-03-11T20:18:22;100365.94;;;1.32;100.00
5883;BME280;2967;51.488;6.618;2023-03-11T20:23:27;100782.09;;;3.65;100.00
5883;BME280;2967;51.488;6.618;2023-03-11T20:28:34;100575.09;;;2.40;100.00
5883;BME280;2967;51.488;6.618;2023-03-11T20:33:42;100515.34;;;1.83;100.00
5883;BME280;2967;51.488;6.618;2023-03-11T20:38:46;100649.22;;;2.83;100.00
5883;BME280;2967;51.488;6.618;2023-03-11T20:43:54;100960.50;;;4.68;100.00
5883;BME280;2967;51.488;6.618;2023-03-11T20:49:00;100803.38;;;3.55;100.00
5883;BME280;2967;51.488;6.618;2023-03-11T20:54:06;101013.38;;;4.56;100.00
5883;BME280;2967;51.488;6.618;2023-03-11T20:59:13;100775.88;;;3.45;100.00
5883;BME280;2967;51.488;6.618;2023-03-11T21:04:19;100927.16;;;4.27;100.00
5883;BME280;2967;51.488;6.618;2023-03-11T21:09:24;100804.75;;;3.42;100.00
5883;BME280;2967;51.488;6.618;2023-03-11T21:14:28;100764.75;;;3.15;100.00
5883;BME280;2967;51.488;6.618;2023-03-11T21:19:32;100942.28;;;4.19;100.00
5883;BME280;2967;51.488;6.618;2023-03-11T21:24:35;100966.97;;;4.37;100.00
5883;BME280;2967;51.488;6.618;2023-03-11T21:29:42;100899.78;;;3.90;100.00
5883;BME280;2967;51.488;6.618;2023-03-11T21:34:49;100966.84;;;4.40;100.00
5883;BME280;2967;51.488;6.618;2023-03-11T21:39:56;100688.78;;;2.72;100.00
5883;BME280;2967;51.488;6.618;2023-03-11T21:45:02;100965.53;;;4.28;100.00
5883;BME280;2967;51.488;6.618;2023-03-11T21:50:09;100770.84;;;3.16;100.00
5883;BME280;2967;51.488;6.618;2023-03-11T21:55:18;100971.66;;;4.27;100.00
5883;BME280;2967;51.488;6.618;2023-03-11T22:00:22;100990.78;;;4.29;100.00
5883;BME280;2967;51.488;6.618;2023-03-11T22:05:27;100760.53;;;2.87;100.00
5883;BME280;2967;51.488;6.618;2023-03-11T22:10:31;100828.13;;;3.46;100.00
5883;BME280;2967;51.488;6.618;2023-03-11T22:15:35;100881.13;;;3.76;100.00
5883;BME280;2967;51.488;6.618;2023-03-11T22:20:40;100968.25;;;4.25;100.00
5883;BME280;2967;51.488;6.618;2023-03-11T22:25:43;100888.88;;;3.77;100.00
5883;BME280;2967;51.488;6.618;2023-03-11T22:30:46;100952.34;;;4.31;100.00
5883;BME280;2967;51.488;6.618;2023-03-11T22:35:57;100827.44;;;3.41;100.00
5883;BME280;2967;51.488;6.618;2023-03-11T22:41:05;100690.03;;;2.62;100.00
5883;BME280;2967;51.488;6.618;2023-03-11T22:46:12;100690.38;;;2.52;100.00
5883;BME280;2967;51.488;6.618;2023-03-11T22:51:17;100990.63;;;4.34;100.00
5883;BME280;2967;51.488;6.618;2023-03-11T22:56:20;100853.03;;;3.56;100.00
5883;BME280;2967;51.488;6.618;2023-03-11T23:01:25;100954.84;;;4.34;100.00
5883;BME280;2967;51.488;6.618;2023-03-11T23:06:36;100971.97;;;4.43;100.00
5883;BME280;2967;51.488;6.618;2023-03-11T23:11:56;100463.63;;;1.45;100.00
5883;BME280;2967;51.488;6.618;2023-03-11T23:17:07;100515.44;;;1.80;100.00
5883;BME280;2967;51.488;6.618;2023-03-11T23:22:14;100953.25;;;4.53;100.00
5883;BME280;2967;51.488;6.618;2023-03-11T23:27:18;100502.09;;;1.89;100.00
5883;BME280;2967;51.488;6.618;2023-03-11T23:32:29;100790.91;;;3.63;100.00
5883;BME280;2967;51.488;6.618;2023-03-11T23:37:34;100489.72;;;1.96;100.00
5883;BME280;2967;51.488;6.618;2023-03-11T23:42:47;100811.81;;;3.86;100.00
5883;BME280;2967;51.488;6.618;2023-03-11T23:47:51;100934.47;;;4.64;99.72
5883;BME280;2967;51.488;6.618;2023-03-11T23:53:07;100677.09;;;3.07;99.41
5883;BME280;2967;51.488;6.618;2023-03-11T23:58:10;100849.94;;;4.16;100.00
